Time;durP1;ratioP1;P1;durP2;ratioP2;P2;SDS_P1;SDS_P2;PMS_P1;PMS_P2;Temp;Humidity;BMP_temperature;BMP_pressure;BME280_temperature;BME280_humidity;BME280_pressure;Samples;Min_cycle;Max_cycle;Signal;HPM_P1;HPM_P2
2023/03/16 00:00:50;;;;;;;1.80;1.70;;;16.10;59.30;17.00;101127.00;;;;5009803;28;20686;-46
2023/03/16 00:03:18;;;;;;;4.63;1.93;;;16.10;59.30;17.00;101116.00;;;;5015617;28;20176;-45
2023/03/16 00:05:48;;;;;;;1.83;1.70;;;16.10;59.30;17.00;101113.00;;;;5020497;28;20175;-43
2023/03/16 00:08:14;;;;;;;2.30;2.10;;;16.10;59.30;17.00;101118.00;;;;5009395;28;20608;-44
2023/03/16 00:10:45;;;;;;;2.20;2.00;;;16.10;59.30;17.00;101119.00;;;;5010964;28;20183;-44
2023/03/16 00:13:17;;;;;;;2.40;2.00;;;16.00;59.20;17.00;101113.00;;;;5010874;28;20212;-44
2023/03/16 00:15:57;;;;;;;2.00;1.80;;;16.00;59.20;16.90;101104.00;;;;5010002;28;20199;-44
2023/03/16 00:18:26;;;;;;;1.90;1.80;;;16.00;59.20;16.90;101105.00;;;;5009622;28;20195;-45
2023/03/16 00:20:54;;;;;;;1.80;1.70;;;16.00;59.20;16.90;101110.00;;;;5010127;28;20175;-44
2023/03/16 00:23:25;;;;;;;2.10;1.83;;;16.00;59.20;16.90;101104.00;;;;5009823;28;20184;-44
2023/03/16 00:26:02;;;;;;;2.00;1.90;;;16.00;59.20;16.90;101093.00;;;;5009966;28;20187;-44
2023/03/16 00:28:33;;;;;;;2.00;1.90;;;15.90;59.10;16.90;101096.00;;;;5009714;28;20543;-45
2023/03/16 00:31:01;;;;;;;2.00;1.90;;;15.90;59.10;16.80;101101.00;;;;5009522;28;20172;-44
2023/03/16 00:33:27;;;;;;;2.00;1.90;;;15.90;59.10;16.80;101103.00;;;;5009694;28;20275;-44
2023/03/16 00:36:00;;;;;;;2.20;2.00;;;15.90;59.10;16.80;101089.00;;;;5009638;28;20699;-44
2023/03/16 00:38:27;;;;;;;2.20;2.00;;;15.90;59.20;16.80;101090.00;;;;5001781;28;20747;-45
2023/03/16 00:40:53;;;;;;;2.00;1.80;;;15.90;59.20;16.80;101096.00;;;;5009582;28;20204;-45
2023/03/16 00:43:18;;;;;;;1.80;1.70;;;15.90;59.10;16.80;101092.00;;;;5009348;28;20183;-44
2023/03/16 00:45:45;;;;;;;2.07;1.87;;;15.90;59.10;16.80;101090.00;;;;5009500;28;20187;-44
2023/03/16 00:48:10;;;;;;;1.80;1.70;;;15.80;59.10;16.70;101088.00;;;;5008025;28;20215;-45
2023/03/16 00:50:37;;;;;;;1.90;1.80;;;15.80;59.10;16.70;101095.00;;;;5009522;28;20171;-44
2023/03/16 00:53:03;;;;;;;1.90;1.80;;;15.80;59.10;16.70;101104.00;;;;5009142;28;20207;-44
2023/03/16 00:55:29;;;;;;;1.67;1.57;;;15.80;59.10;16.70;101083.00;;;;5009547;28;20182;-44
2023/03/16 00:57:54;;;;;;;2.00;1.90;;;15.80;59.20;16.70;101093.00;;;;5009427;28;20241;-45
2023/03/16 01:00:21;;;;;;;2.10;1.90;;;15.80;59.10;16.70;101081.00;;;;5009047;28;20919;-43
2023/03/16 01:02:47;;;;;;;2.00;1.90;;;15.80;59.10;16.70;101087.00;;;;5009388;28;20180;-44
2023/03/16 01:05:13;;;;;;;1.97;1.80;;;15.80;59.00;16.70;101092.00;;;;5009172;28;20179;-44
2023/03/16 01:07:39;;;;;;;2.30;2.00;;;15.70;58.90;16.40;101093.00;;;;5008924;28;20271;-44
2023/03/16 01:10:06;;;;;;;1.90;1.80;;;15.70;59.00;16.60;101087.00;;;;5008837;28;20180;-44
2023/03/16 01:12:32;;;;;;;1.90;1.80;;;15.70;59.00;16.60;101092.00;;;;5017241;28;20557;-44
2023/03/16 01:14:58;;;;;;;1.90;1.80;;;15.70;59.10;16.40;101082.00;;;;5016262;28;20179;-44
2023/03/16 01:17:24;;;;;;;1.80;1.70;;;15.70;59.00;16.60;101085.00;;;;5008851;28;20175;-43
2023/03/16 01:19:50;;;;;;;1.83;1.73;;;15.70;59.00;16.60;101081.00;;;;5008956;28;20677;-44
2023/03/16 01:22:16;;;;;;;1.97;1.80;;;15.60;58.90;16.60;101078.00;;;;5007345;28;20179;-44
2023/03/16 01:24:44;;;;;;;1.97;1.87;;;15.60;58.90;16.60;101071.00;;;;5008653;28;20266;-43
2023/03/16 01:27:09;;;;;;;1.83;1.73;;;15.60;58.90;16.50;101064.00;;;;5008817;28;20669;-44
2023/03/16 01:29:35;;;;;;;2.30;2.10;;;15.60;59.00;16.50;101060.00;;;;5008780;28;20204;-46
2023/03/16 01:32:03;;;;;;;1.80;1.70;;;15.60;58.90;16.50;101065.00;;;;5008711;28;20204;-45
2023/03/16 01:34:29;;;;;;;1.80;1.70;;;15.60;58.90;16.50;101069.00;;;;5009007;28;20179;-45
2023/03/16 01:36:54;;;;;;;2.17;1.87;;;15.60;58.90;16.50;101057.00;;;;5008356;28;20199;-44
2023/03/16 01:39:20;;;;;;;1.80;1.70;;;15.50;58.90;16.50;101054.00;;;;5008396;28;20195;-45
2023/03/16 01:41:46;;;;;;;1.90;1.80;;;15.50;58.90;16.50;101053.00;;;;5008307;28;20256;-44
2023/03/16 01:44:23;;;;;;;2.13;1.90;;;15.50;58.90;16.40;101051.00;;;;5008416;28;20617;-44
2023/03/16 01:46:49;;;;;;;2.53;1.90;;;15.50;58.90;16.40;101051.00;;;;5008661;28;20225;-44
2023/03/16 01:49:37;;;;;;;1.80;1.70;;;15.50;58.90;16.40;101038.00;;;;5008128;28;20840;-44
2023/03/16 01:52:24;;;;;;;1.90;1.80;;;15.50;58.90;16.20;101029.00;;;;5006790;28;20215;-44
2023/03/16 01:54:59;;;;;;;2.03;1.83;;;15.50;59.00;16.40;101030.00;;;;5006946;28;20662;-44
2023/03/16 01:57:35;;;;;;;1.90;1.80;;;15.40;58.90;16.40;101019.00;;;;5008623;28;20273;-43
2023/03/16 02:00:14;;;;;;;1.80;1.70;;;15.40;59.00;16.30;101018.00;;;;4992000;28;20180;-44
2023/03/16 02:02:42;;;;;;;2.00;1.90;;;15.40;58.90;16.30;101012.00;;;;5012424;28;20336;-44
2023/03/16 02:05:12;;;;;;;1.93;1.83;;;15.40;58.90;16.30;101011.00;;;;5007868;28;20303;-44
2023/03/16 02:07:45;;;;;;;1.97;1.87;;;15.40;58.90;16.30;101002.00;;;;5007277;28;20182;-45
2023/03/16 02:10:12;;;;;;;1.80;1.70;;;15.40;58.90;16.30;101010.00;;;;5007201;28;20255;-44
2023/03/16 02:12:38;;;;;;;2.03;1.73;;;15.40;58.80;16.30;101002.00;;;;5007163;28;20234;-44
2023/03/16 02:15:04;;;;;;;2.13;1.93;;;15.30;58.70;16.30;101007.00;;;;5007344;28;20208;-45
2023/03/16 02:17:30;;;;;;;1.97;1.87;;;15.30;58.80;16.30;101004.00;;;;5008447;28;20175;-45
2023/03/16 02:20:30;;;;;;;2.00;1.90;;;15.30;58.80;16.20;101009.00;;;;5009297;28;20363;-45
2023/03/16 02:22:55;;;;;;;1.90;1.80;;;15.30;59.00;16.20;101000.00;;;;5018272;28;20262;-44
2023/03/16 02:25:29;;;;;;;2.10;1.90;;;15.30;59.10;16.20;100997.00;;;;5011548;28;20262;-44
2023/03/16 02:28:14;;;;;;;2.53;1.90;;;15.30;58.90;16.20;100985.00;;;;5010957;28;20210;-44
2023/03/16 02:30:40;;;;;;;1.90;1.80;;;15.30;58.90;16.20;100986.00;;;;5011936;28;20849;-44
2023/03/16 02:33:06;;;;;;;2.00;1.80;;;15.30;59.00;16.20;100983.00;;;;5012015;28;20294;-47
2023/03/16 02:35:32;;;;;;;3.07;1.90;;;15.30;58.90;16.20;100979.00;;;;5010935;28;20175;-44
2023/03/16 02:37:57;;;;;;;2.10;1.90;;;15.20;58.70;16.20;100985.00;;;;5011827;28;20201;-44
2023/03/16 02:40:27;;;;;;;2.17;1.80;;;15.20;58.80;16.20;100981.00;;;;5011701;28;20569;-44
2023/03/16 02:43:05;;;;;;;1.80;1.70;;;15.20;58.80;16.10;100985.00;;;;5011828;28;20230;-44
2023/03/16 02:45:42;;;;;;;2.40;1.60;;;15.20;58.80;16.10;100987.00;;;;5010542;28;20211;-45
2023/03/16 02:48:13;;;;;;;2.60;1.90;;;15.20;58.70;16.10;100985.00;;;;5010428;28;20199;-43
2023/03/16 02:50:46;;;;;;;2.80;1.87;;;15.20;58.70;16.10;100969.00;;;;5010304;28;20207;-45
2023/03/16 02:53:13;;;;;;;1.87;1.77;;;15.10;58.60;16.10;100974.00;;;;5010350;28;20633;-44
2023/03/16 02:55:38;;;;;;;1.90;1.80;;;15.10;58.70;16.10;100967.00;;;;5011493;28;20180;-44
2023/03/16 02:58:04;;;;;;;2.07;1.87;;;15.10;58.60;16.10;100979.00;;;;5011698;28;20199;-46
2023/03/16 03:00:31;;;;;;;1.80;1.70;;;15.10;58.70;16.00;100969.00;;;;5011464;28;20560;-43
2023/03/16 03:02:57;;;;;;;1.97;1.80;;;15.10;58.80;16.00;100968.00;;;;5011102;28;20183;-45
2023/03/16 03:05:22;;;;;;;1.90;1.80;;;15.10;58.70;16.00;100959.00;;;;5011351;28;20184;-44
2023/03/16 03:07:48;;;;;;;2.00;1.90;;;15.10;58.60;16.00;100962.00;;;;5011223;28;20812;-45
2023/03/16 03:10:14;;;;;;;2.20;1.90;;;15.00;58.60;16.00;100970.00;;;;5009679;28;20187;-44
2023/03/16 03:12:41;;;;;;;1.80;1.70;;;15.10;59.30;16.00;100959.00;;;;5011059;28;20213;-44
2023/03/16 03:15:07;;;;;;;2.33;1.70;;;15.10;58.60;16.00;100950.00;;;;5010985;28;20172;-45
2023/03/16 03:17:33;;;;;;;1.83;1.73;;;15.00;58.50;16.00;100960.00;;;;5011017;28;20259;-44
2023/03/16 03:20:01;;;;;;;1.77;1.67;;;15.10;58.60;16.00;100959.00;;;;5011462;28;20710;-45
2023/03/16 03:22:26;;;;;;;1.80;1.70;;;15.00;58.50;16.00;100954.00;;;;5011075;28;20175;-44
2023/03/16 03:24:52;;;;;;;1.90;1.80;;;15.00;58.50;15.90;100949.00;;;;5011257;28;20654;-43
2023/03/16 03:27:21;;;;;;;2.07;1.90;;;15.00;58.60;15.90;100951.00;;;;5010927;28;20246;-45
2023/03/16 03:29:46;;;;;;;1.97;1.83;;;15.00;58.60;15.90;100961.00;;;;5018296;28;20570;-45
2023/03/16 03:32:12;;;;;;;1.80;1.70;;;15.00;58.60;15.90;100950.00;;;;5021301;28;20226;-44
2023/03/16 03:34:38;;;;;;;1.73;1.63;;;14.90;58.50;15.90;100950.00;;;;5010110;28;20657;-44
2023/03/16 03:37:04;;;;;;;1.90;1.80;;;14.90;58.50;15.90;100954.00;;;;5011559;28;20263;-44
2023/03/16 03:39:29;;;;;;;1.93;1.77;;;14.90;58.50;15.90;100963.00;;;;5010668;28;20191;-45
2023/03/16 03:41:55;;;;;;;2.10;1.90;;;14.90;58.50;15.90;100955.00;;;;5011016;28;20199;-45
2023/03/16 03:44:21;;;;;;;2.13;2.00;;;14.90;58.40;15.80;100949.00;;;;5010712;28;20183;-45
2023/03/16 03:46:48;;;;;;;1.83;1.73;;;14.90;58.50;15.80;100964.00;;;;5010607;28;20247;-44
2023/03/16 03:49:13;;;;;;;1.97;1.87;;;14.90;58.60;15.60;100956.00;;;;5010265;28;20195;-44
2023/03/16 03:51:40;;;;;;;1.87;1.73;;;14.90;58.50;15.80;100963.00;;;;5009970;28;20828;-45
2023/03/16 03:54:06;;;;;;;2.10;1.90;;;14.80;58.40;15.80;100949.00;;;;5010328;28;20253;-44
2023/03/16 03:56:32;;;;;;;2.10;1.90;;;14.80;58.40;15.80;100940.00;;;;5010518;28;20222;-44
2023/03/16 03:58:57;;;;;;;1.87;1.77;;;14.80;58.40;15.80;100932.00;;;;5010231;28;20192;-44
2023/03/16 04:01:23;;;;;;;1.60;1.50;;;14.80;58.40;15.80;100937.00;;;;5010015;28;20167;-44
2023/03/16 04:03:49;;;;;;;1.90;1.80;;;14.80;58.40;15.70;100946.00;;;;5010378;28;20234;-44
2023/03/16 04:06:15;;;;;;;1.90;1.80;;;14.80;58.40;15.70;100937.00;;;;5008887;28;20180;-44
2023/03/16 04:08:40;;;;;;;1.90;1.80;;;14.80;58.40;15.70;100943.00;;;;5010320;28;20499;-44
2023/03/16 04:11:06;;;;;;;2.00;1.80;;;14.80;58.40;15.70;100955.00;;;;5010121;28;20218;-45
2023/03/16 04:13:32;;;;;;;1.90;1.80;;;14.80;58.40;15.70;100938.00;;;;5009647;28;20203;-44
2023/03/16 04:16:04;;;;;;;1.80;1.70;;;14.70;58.40;15.70;100941.00;;;;5009890;28;20198;-44
2023/03/16 04:18:37;;;;;;;1.97;1.80;;;14.70;58.40;15.70;100937.00;;;;5009916;28;20223;-44
2023/03/16 04:21:07;;;;;;;1.80;1.70;;;14.70;58.30;15.70;100928.00;;;;5009880;28;20263;-44
2023/03/16 04:23:33;;;;;;;1.77;1.67;;;14.70;58.30;15.70;100927.00;;;;5008327;28;20196;-44
2023/03/16 04:26:00;;;;;;;2.60;1.70;;;14.70;58.20;15.70;100925.00;;;;5009954;28;20721;-43
2023/03/16 04:28:25;;;;;;;2.00;1.90;;;14.70;58.30;15.60;100923.00;;;;5008453;28;20191;-43
2023/03/16 04:30:54;;;;;;;1.70;1.60;;;14.70;58.30;15.60;100910.00;;;;5008629;28;20257;-44
2023/03/16 04:33:21;;;;;;;1.83;1.73;;;14.70;58.30;15.60;100918.00;;;;5009456;28;20200;-45
2023/03/16 04:35:47;;;;;;;1.97;1.87;;;14.70;58.60;15.60;100921.00;;;;5009628;28;20654;-43
2023/03/16 04:38:13;;;;;;;4.17;2.07;;;14.70;58.70;15.60;100916.00;;;;5002804;28;20219;-44
2023/03/16 04:40:39;;;;;;;2.30;2.10;;;14.70;58.40;15.60;100913.00;;;;5009480;28;20647;-44
2023/03/16 04:43:05;;;;;;;2.10;1.80;;;14.70;58.40;15.60;100907.00;;;;5009273;28;20258;-44
2023/03/16 04:45:31;;;;;;;2.00;1.90;;;14.70;58.50;15.60;100902.00;;;;5009153;28;20171;-44
2023/03/16 04:47:57;;;;;;;2.57;1.90;;;14.60;58.30;15.60;100903.00;;;;5010282;28;20261;-44
2023/03/16 04:50:22;;;;;;;1.90;1.80;;;14.60;58.30;15.60;100908.00;;;;5010092;28;20653;-44
2023/03/16 04:52:48;;;;;;;1.90;1.80;;;14.60;58.40;15.50;100909.00;;;;5010053;28;20192;-44
2023/03/16 04:55:14;;;;;;;2.23;1.80;;;14.50;58.10;15.50;100892.00;;;;5010009;28;20560;-45
2023/03/16 04:57:39;;;;;;;3.23;2.20;;;14.50;58.00;15.50;100896.00;;;;5009833;28;20206;-44
2023/03/16 05:00:10;;;;;;;2.27;1.97;;;14.50;58.00;15.50;100902.00;;;;5009880;28;20250;-48
2023/03/16 05:02:36;;;;;;;2.13;2.03;;;14.50;58.00;15.50;100900.00;;;;5010088;28;20180;-45
2023/03/16 05:05:04;;;;;;;2.80;2.27;;;14.50;57.90;15.50;100896.00;;;;5010170;28;20195;-44
2023/03/16 05:07:30;;;;;;;2.20;2.00;;;14.50;57.70;15.50;100891.00;;;;5009922;28;20176;-44
2023/03/16 05:09:56;;;;;;;2.40;2.20;;;14.40;57.60;15.40;100892.00;;;;5009955;28;20234;-44
2023/03/16 05:12:21;;;;;;;2.53;2.00;;;14.40;57.60;15.40;100896.00;;;;5009452;28;20207;-45
2023/03/16 05:14:47;;;;;;;2.50;1.93;;;14.40;57.50;15.40;100900.00;;;;5002061;28;20168;-44
2023/03/16 05:17:13;;;;;;;2.30;2.10;;;14.40;57.80;15.40;100902.00;;;;5003232;28;20186;-44
2023/03/16 05:19:39;;;;;;;2.73;2.20;;;14.40;57.70;15.40;100898.00;;;;5002530;28;20191;-44
2023/03/16 05:22:05;;;;;;;2.20;2.00;;;14.40;57.60;15.30;100902.00;;;;5004009;28;20262;-45
2023/03/16 05:24:31;;;;;;;4.13;2.20;;;14.40;57.50;15.30;100899.00;;;;5009406;28;20266;-45
2023/03/16 05:26:57;;;;;;;4.93;2.27;;;14.40;57.50;15.30;100889.00;;;;5009444;28;20167;-45
2023/03/16 05:29:24;;;;;;;3.20;2.23;;;14.40;57.50;15.30;100890.00;;;;5009016;28;20234;-45
2023/03/16 05:31:50;;;;;;;3.40;2.27;;;14.30;57.40;15.30;100893.00;;;;5009265;28;20168;-45
2023/03/16 05:34:15;;;;;;;9.97;2.30;;;14.30;57.50;15.30;100897.00;;;;5009143;28;20211;-44
2023/03/16 05:36:43;;;;;;;11.30;3.20;;;14.30;57.50;15.30;100893.00;;;;5009339;28;20604;-44
2023/03/16 05:39:09;;;;;;;7.17;3.47;;;14.30;57.50;15.30;100902.00;;;;5007759;28;20203;-44
2023/03/16 05:41:35;;;;;;;12.67;3.57;;;14.30;57.50;15.30;100897.00;;;;5009252;28;20202;-44
2023/03/16 05:44:01;;;;;;;12.63;3.87;;;14.30;57.50;15.30;100889.00;;;;5008562;28;20229;-48
2023/03/16 05:46:27;;;;;;;15.80;3.70;;;14.20;57.50;15.30;100891.00;;;;5007571;28;20528;-45
2023/03/16 05:48:52;;;;;;;14.20;3.50;;;14.20;57.50;15.30;100888.00;;;;5009057;28;20247;-44
2023/03/16 05:51:18;;;;;;;17.10;3.93;;;14.20;57.50;15.30;100894.00;;;;5008733;28;20190;-46
2023/03/16 05:53:45;;;;;;;8.53;3.40;;;14.20;57.60;15.20;100901.00;;;;5009146;28;20230;-44
2023/03/16 05:56:11;;;;;;;9.53;3.40;;;14.30;57.70;15.20;100893.00;;;;5008523;28;20179;-45
2023/03/16 05:58:37;;;;;;;12.37;3.50;;;14.20;57.60;15.20;100897.00;;;;5008295;28;20283;-44
2023/03/16 06:01:04;;;;;;;13.60;3.17;;;14.20;57.60;15.20;100903.00;;;;5008902;28;20246;-44
2023/03/16 06:03:30;;;;;;;11.43;3.30;;;14.20;57.60;15.20;100915.00;;;;5008299;28;20180;-45
2023/03/16 06:05:56;;;;;;;11.90;3.77;;;14.20;57.50;15.20;100903.00;;;;5008432;28;20183;-45
2023/03/16 06:08:21;;;;;;;9.70;3.50;;;14.20;57.60;15.20;100901.00;;;;5011321;28;20202;-45
2023/03/16 06:10:47;;;;;;;6.73;3.17;;;14.20;57.50;15.20;100912.00;;;;5011920;28;20231;-45
2023/03/16 06:13:13;;;;;;;13.23;3.33;;;14.20;57.50;15.20;100911.00;;;;5011358;28;20199;-45
2023/03/16 06:15:39;;;;;;;10.43;3.10;;;14.20;57.50;15.20;100905.00;;;;5010136;28;20665;-45
2023/03/16 06:18:05;;;;;;;9.87;3.17;;;14.20;57.50;15.10;100909.00;;;;5010091;28;20191;-45
2023/03/16 06:20:30;;;;;;;5.03;2.83;;;14.20;57.50;15.20;100903.00;;;;5009415;28;20206;-44
2023/03/16 06:22:56;;;;;;;7.33;2.93;;;14.20;57.50;15.20;100894.00;;;;5008625;28;20172;-44
2023/03/16 06:25:22;;;;;;;7.00;2.70;;;14.20;57.50;15.10;100906.00;;;;5008592;28;20223;-44
2023/03/16 06:27:49;;;;;;;5.43;2.70;;;14.10;57.50;15.10;100895.00;;;;5008426;28;20572;-44
2023/03/16 06:30:15;;;;;;;8.30;2.80;;;14.10;57.50;15.10;100902.00;;;;5008614;28;20184;-44
2023/03/16 06:32:41;;;;;;;7.17;3.13;;;14.10;57.50;15.10;100914.00;;;;5008394;28;20678;-44
2023/03/16 06:35:08;;;;;;;4.73;2.80;;;14.10;57.50;15.10;100903.00;;;;5008250;28;20178;-44
2023/03/16 06:37:34;;;;;;;7.27;3.10;;;14.10;58.20;15.10;100898.00;;;;5008651;28;20172;-47
2023/03/16 06:39:59;;;;;;;5.27;2.50;;;14.10;57.60;15.10;100906.00;;;;5007641;28;20191;-46
2023/03/16 06:42:25;;;;;;;4.23;2.70;;;14.10;57.60;15.10;100909.00;;;;5007378;28;20176;-43
2023/03/16 06:44:51;;;;;;;7.97;2.80;;;14.10;57.60;15.10;100902.00;;;;5008487;28;20167;-44
2023/03/16 06:47:17;;;;;;;5.37;2.70;;;14.10;57.60;15.10;100912.00;;;;5008479;28;20264;-45
2023/03/16 06:49:45;;;;;;;6.37;2.73;;;14.10;57.60;15.10;100915.00;;;;5006997;28;20203;-44
2023/03/16 06:52:12;;;;;;;5.63;3.03;;;14.10;57.60;15.00;100902.00;;;;5008203;28;20175;-45
2023/03/16 06:54:39;;;;;;;7.03;2.60;;;14.00;57.50;15.00;100838.00;;;;5008236;28;20707;-45
2023/03/16 06:57:06;;;;;;;4.43;2.40;;;14.00;57.60;15.00;100909.00;;;;5008355;28;20306;-44
2023/03/16 06:59:31;;;;;;;6.20;2.50;;;14.00;57.60;15.00;100909.00;;;;5008013;28;20271;-45
2023/03/16 07:01:57;;;;;;;4.27;2.47;;;14.00;58.20;15.00;100917.00;;;;5008872;28;20758;-45
2023/03/16 07:04:23;;;;;;;5.93;2.60;;;14.00;57.60;15.00;100887.00;;;;5008769;28;20233;-45
2023/03/16 07:06:49;;;;;;;4.17;2.60;;;14.00;57.60;15.00;100922.00;;;;5008842;28;20164;-44
2023/03/16 07:09:14;;;;;;;4.40;2.40;;;14.00;57.60;15.00;100918.00;;;;5010400;28;20857;-44
2023/03/16 07:11:40;;;;;;;3.63;2.40;;;14.00;57.60;15.00;100911.00;;;;5011894;28;20179;-45
2023/03/16 07:14:06;;;;;;;3.43;2.57;;;14.00;57.60;15.00;100916.00;;;;5016314;28;20202;-46
2023/03/16 07:16:32;;;;;;;4.47;2.43;;;14.00;57.60;15.00;100926.00;;;;5013103;28;20234;-45
2023/03/16 07:18:57;;;;;;;3.80;2.30;;;14.00;57.60;15.00;100919.00;;;;5011859;28;20309;-49
2023/03/16 07:21:23;;;;;;;4.43;2.63;;;13.90;57.40;15.00;100921.00;;;;5011605;28;20250;-44
2023/03/16 07:23:50;;;;;;;3.37;2.40;;;13.90;57.50;15.00;100918.00;;;;5011773;28;20222;-44
2023/03/16 07:26:16;;;;;;;3.10;2.40;;;13.90;57.50;14.90;100917.00;;;;5011345;28;20586;-45
2023/03/16 07:28:42;;;;;;;5.73;2.60;;;13.90;57.50;14.90;100916.00;;;;5011585;28;20305;-44
2023/03/16 07:31:08;;;;;;;3.37;2.20;;;13.90;57.50;14.90;100926.00;;;;5011434;28;20180;-44
2023/03/16 07:33:34;;;;;;;3.43;2.27;;;13.90;57.50;14.90;100927.00;;;;5011499;28;20203;-45
2023/03/16 07:36:03;;;;;;;4.43;2.40;;;13.90;57.50;14.90;100923.00;;;;5011058;28;20172;-44
2023/03/16 07:38:31;;;;;;;3.40;2.27;;;13.90;57.60;14.90;100927.00;;;;5011303;28;20230;-45
2023/03/16 07:40:58;;;;;;;3.33;2.30;;;13.90;57.60;14.90;100928.00;;;;5011122;28;20172;-45
2023/03/16 07:43:24;;;;;;;5.70;2.47;;;13.80;57.50;14.90;100925.00;;;;5010664;28;20191;-43
2023/03/16 07:45:50;;;;;;;4.07;2.20;;;13.90;57.60;14.90;100920.00;;;;5010633;28;20171;-44
2023/03/16 07:48:16;;;;;;;4.93;2.40;;;13.80;57.50;14.90;100928.00;;;;5010930;28;20230;-44
2023/03/16 07:50:42;;;;;;;3.10;2.30;;;13.80;57.50;14.90;100921.00;;;;5011003;28;20207;-43
2023/03/16 07:53:09;;;;;;;3.67;2.40;;;13.80;57.50;14.90;100924.00;;;;5010770;28;20278;-45
2023/03/16 07:55:38;;;;;;;3.87;2.50;;;13.80;57.50;14.90;100919.00;;;;5010470;28;20167;-45
2023/03/16 07:58:05;;;;;;;4.10;2.30;;;13.80;57.50;14.90;100913.00;;;;5010638;28;20194;-45
2023/03/16 08:00:32;;;;;;;3.57;2.13;;;13.90;57.60;14.90;100913.00;;;;5009644;28;20172;-45
2023/03/16 08:02:58;;;;;;;2.40;2.20;;;13.80;57.60;14.90;100917.00;;;;5002070;28;20555;-45
2023/03/16 08:05:24;;;;;;;2.87;2.20;;;13.80;57.60;14.90;100918.00;;;;5003094;28;20178;-45
2023/03/16 08:07:50;;;;;;;4.10;2.20;;;13.90;57.70;14.90;100922.00;;;;5003014;28;20200;-44
2023/03/16 08:10:17;;;;;;;4.50;2.20;;;13.80;57.50;14.80;100902.00;;;;5010293;28;20752;-45
2023/03/16 08:12:43;;;;;;;3.70;2.10;;;13.90;57.60;14.90;100903.00;;;;5007116;28;20206;-45
2023/03/16 08:15:09;;;;;;;2.73;2.07;;;13.90;57.90;14.90;100908.00;;;;5009111;28;20549;-46
2023/03/16 08:17:35;;;;;;;3.97;2.00;;;13.90;58.00;14.80;100920.00;;;;5009608;28;20176;-45
2023/03/16 08:20:07;;;;;;;4.53;2.43;;;13.90;58.30;14.80;100918.00;;;;5009857;28;20172;-45
2023/03/16 08:22:35;;;;;;;3.03;2.27;;;14.00;58.50;14.90;100920.00;;;;5007218;28;20569;-45
2023/03/16 08:25:04;;;;;;;3.80;2.20;;;14.00;58.50;14.90;100922.00;;;;5010802;28;20191;-44
2023/03/16 08:27:31;;;;;;;5.13;2.50;;;14.10;58.50;14.90;100930.00;;;;5010275;28;20180;-45
2023/03/16 08:29:56;;;;;;;3.40;2.20;;;14.10;58.40;14.90;100928.00;;;;5009023;28;20183;-44
2023/03/16 08:32:23;;;;;;;3.20;2.37;;;14.20;58.30;15.00;100920.00;;;;5009571;28;20192;-44
2023/03/16 08:34:51;;;;;;;3.13;2.20;;;14.30;58.40;15.10;100918.00;;;;5008954;28;20275;-45
2023/03/16 08:37:17;;;;;;;2.23;2.03;;;14.40;58.40;15.10;100917.00;;;;5009633;28;20665;-44
2023/03/16 08:39:43;;;;;;;2.40;2.20;;;14.50;58.30;15.20;100904.00;;;;5008545;28;20192;-44
2023/03/16 08:42:14;;;;;;;4.20;2.20;;;14.60;58.40;15.30;100911.00;;;;5010022;28;20172;-44
2023/03/16 08:44:40;;;;;;;4.20;2.30;;;14.70;58.50;15.40;100903.00;;;;5010273;28;20206;-45
2023/03/16 08:47:06;;;;;;;4.13;2.20;;;14.80;58.50;15.50;100913.00;;;;5010663;28;20252;-44
2023/03/16 08:49:32;;;;;;;5.87;2.23;;;14.90;58.50;15.50;100902.00;;;;5009922;28;20570;-44
2023/03/16 08:51:59;;;;;;;8.37;2.60;;;15.10;58.50;15.60;100909.00;;;;5009678;28;20201;-45
2023/03/16 08:54:25;;;;;;;5.83;2.27;;;15.20;58.50;15.80;100906.00;;;;5008542;28;20844;-44
2023/03/16 08:56:51;;;;;;;4.43;2.17;;;15.30;58.70;15.80;100912.00;;;;5009092;28;20168;-44
2023/03/16 08:59:17;;;;;;;13.47;2.63;;;15.30;59.40;15.90;100916.00;;;;5009905;28;20287;-46
2023/03/16 09:01:43;;;;;;;5.90;2.30;;;15.40;59.40;16.00;100906.00;;;;5009691;28;20243;-45
2023/03/16 09:04:08;;;;;;;10.60;2.70;;;15.50;59.70;16.10;100906.00;;;;5009597;28;20203;-44
2023/03/16 09:06:35;;;;;;;3.13;2.23;;;15.50;59.40;16.20;100902.00;;;;5009773;28;20183;-44
2023/03/16 09:09:00;;;;;;;8.57;2.67;;;15.60;59.40;16.20;100913.00;;;;4999321;28;20286;-44
2023/03/16 09:11:29;;;;;;;6.67;2.40;;;15.70;59.60;16.30;100905.00;;;;5004976;28;20262;-44
2023/03/16 09:13:55;;;;;;;4.30;2.47;;;15.70;59.90;16.40;100910.00;;;;5005621;28;20294;-44
2023/03/16 09:16:24;;;;;;;6.10;2.40;;;15.80;60.20;16.50;100919.00;;;;5005165;28;20266;-45
2023/03/16 09:18:50;;;;;;;6.50;2.23;;;15.90;60.90;16.50;100909.00;;;;5009346;28;20250;-44
2023/03/16 09:21:17;;;;;;;5.43;2.20;;;16.00;59.90;16.60;100902.00;;;;5008185;28;20183;-44
2023/03/16 09:23:43;;;;;;;7.87;2.57;;;16.10;59.80;16.70;100899.00;;;;5009440;28;20199;-44
2023/03/16 09:26:09;;;;;;;5.63;2.37;;;16.10;59.80;16.80;100914.00;;;;5002829;28;20663;-46
2023/03/16 09:28:35;;;;;;;8.73;2.33;;;16.20;59.90;16.80;100901.00;;;;5002382;28;20265;-45
2023/03/16 09:31:02;;;;;;;9.27;2.50;;;16.30;60.10;16.90;100897.00;;;;5001567;28;20563;-45
2023/03/16 09:33:28;;;;;;;6.97;2.30;;;16.30;59.70;17.00;100879.00;;;;5003402;28;20227;-45
2023/03/16 09:35:56;;;;;;;5.20;2.17;;;16.40;60.00;17.10;100885.00;;;;5001618;28;20206;-45
2023/03/16 09:38:24;;;;;;;6.37;2.60;;;16.50;60.00;17.20;100888.00;;;;5002194;28;20199;-45
2023/03/16 09:40:56;;;;;;;3.50;2.17;;;16.60;59.80;17.30;100891.00;;;;5008134;28;20618;-44
2023/03/16 09:43:46;;;;;;;8.43;2.33;;;16.70;59.50;17.30;100879.00;;;;5005007;28;20184;-44
2023/03/16 09:46:37;;;;;;;5.80;2.40;;;16.70;59.40;17.40;100858.00;;;;5009785;28;20183;-45
2023/03/16 09:49:03;;;;;;;4.03;2.20;;;16.70;59.20;17.40;100872.00;;;;5008656;28;20242;-44
2023/03/16 09:51:47;;;;;;;3.83;2.40;;;16.80;59.20;17.50;100864.00;;;;5007738;28;20186;-44
2023/03/16 09:54:41;;;;;;;4.73;2.20;;;16.80;59.10;17.50;100877.00;;;;5007912;28;20204;-44
2023/03/16 09:57:31;;;;;;;7.40;2.20;;;16.80;59.10;17.50;100860.00;;;;5008826;28;20264;-45
2023/03/16 10:00:06;;;;;;;3.30;2.00;;;16.80;59.10;17.50;100860.00;;;;5008488;28;20658;-44
2023/03/16 10:02:42;;;;;;;4.27;2.03;;;16.80;59.10;17.50;100855.00;;;;5008686;28;20167;-44
2023/03/16 10:05:12;;;;;;;5.20;2.20;;;16.80;59.10;17.50;100846.00;;;;5008520;28;20547;-44
2023/03/16 10:07:51;;;;;;;6.00;2.20;;;16.80;59.10;17.50;100835.00;;;;5008649;28;20172;-45
2023/03/16 10:10:35;;;;;;;3.47;2.10;;;16.80;59.10;17.60;100837.00;;;;5009626;28;20179;-44
2023/03/16 10:13:01;;;;;;;3.67;2.37;;;16.80;59.10;17.50;100847.00;;;;5008413;28;20255;-45
2023/03/16 10:15:29;;;;;;;4.13;2.30;;;16.80;59.10;17.60;100847.00;;;;5008904;28;20199;-44
2023/03/16 10:18:14;;;;;;;2.43;2.10;;;16.80;59.10;17.60;100838.00;;;;5010246;28;20237;-45
2023/03/16 10:20:40;;;;;;;3.40;2.10;;;16.80;59.10;17.60;100845.00;;;;5013587;28;20205;-44
2023/03/16 10:23:20;;;;;;;3.73;2.20;;;16.70;59.00;17.50;100851.00;;;;5013636;28;20549;-45
2023/03/16 10:25:53;;;;;;;3.33;2.30;;;16.70;59.00;17.50;100844.00;;;;5011579;28;20171;-44
2023/03/16 10:28:25;;;;;;;5.67;2.03;;;16.70;59.00;17.50;100848.00;;;;5010661;28;20206;-46
2023/03/16 10:30:53;;;;;;;3.90;2.07;;;16.70;59.00;17.50;100844.00;;;;5008707;28;20180;-44
2023/03/16 10:33:25;;;;;;;3.17;2.10;;;16.70;59.10;17.50;100845.00;;;;5009395;28;20214;-46
2023/03/16 10:36:27;;;;;;;3.60;2.00;;;16.70;59.10;17.50;100836.00;;;;5009713;28;20181;-45
2023/03/16 10:39:15;;;;;;;2.77;2.03;;;16.70;59.10;17.50;100831.00;;;;5008380;28;20206;-44
2023/03/16 10:41:45;;;;;;;2.90;1.90;;;16.70;59.10;17.50;100831.00;;;;5003882;28;20175;-45
2023/03/16 10:44:13;;;;;;;2.13;1.80;;;16.60;59.10;17.50;100838.00;;;;5011789;28;20203;-45
2023/03/16 10:46:57;;;;;;;2.03;1.80;;;16.60;59.10;17.50;100831.00;;;;5013484;28;20186;-45
2023/03/16 10:49:39;;;;;;;2.20;2.00;;;16.60;59.10;17.50;100829.00;;;;5013158;28;20287;-46
2023/03/16 10:52:41;;;;;;;2.20;2.00;;;16.60;59.00;17.50;100821.00;;;;5016024;28;20180;-45